createdAt,value
2022-12-11T00:00:39.513Z,24.63
2022-12-11T00:03:10.223Z,23.58
2022-12-11T00:05:41.154Z,23.65
2022-12-11T00:08:08.535Z,23.95
2022-12-11T00:19:13.304Z,22.63
2022-12-11T00:21:40.377Z,22.52
2022-12-11T00:24:11.728Z,20.63
2022-12-11T00:26:42.782Z,22.73
2022-12-11T00:29:14.355Z,20.85
2022-12-11T00:31:42.419Z,23.83
2022-12-11T00:34:09.656Z,20.75
2022-12-11T00:36:36.718Z,24.30
2022-12-11T00:39:04.895Z,24.23
2022-12-11T00:41:32.253Z,22.48
2022-12-11T00:43:59.418Z,24.70
2022-12-11T00:46:26.492Z,22.92
2022-12-11T00:48:53.596Z,22.77
2022-12-11T00:51:20.839Z,23.52
2022-12-11T00:53:48.285Z,22.00
2022-12-11T00:56:18.259Z,20.75
2022-12-11T00:58:46.511Z,21.75
2022-12-11T01:01:16.766Z,23.83
2022-12-11T01:03:44.045Z,23.55
2022-12-11T01:06:16.465Z,23.83
2022-12-11T01:08:45.020Z,23.60
2022-12-11T01:11:14.381Z,20.45
2022-12-11T01:13:41.905Z,23.40
2022-12-11T01:16:13.087Z,23.27
2022-12-11T01:18:40.460Z,22.98
2022-12-11T01:21:10.059Z,23.70
2022-12-11T01:23:37.894Z,23.33
2022-12-11T01:26:09.583Z,22.10
2022-12-11T01:28:36.859Z,23.90
2022-12-11T01:31:14.597Z,22.20
2022-12-11T01:33:41.721Z,23.40
2022-12-11T01:36:18.357Z,20.20
2022-12-11T01:38:46.846Z,22.58
2022-12-11T01:41:15.099Z,21.33
2022-12-11T01:43:57.242Z,24.00
2022-12-11T01:46:25.005Z,25.98
2022-12-11T01:48:52.692Z,24.23
2022-12-11T01:51:20.329Z,25.58
2022-12-11T01:53:51.822Z,21.33
2022-12-11T01:56:19.380Z,22.55
2022-12-11T01:58:49.403Z,24.70
2022-12-11T02:01:28.566Z,26.17
2022-12-11T02:03:55.838Z,23.58
2022-12-11T02:06:36.463Z,23.85
2022-12-11T02:09:05.820Z,23.40
2022-12-11T02:11:45.819Z,24.02
2022-12-11T02:14:27.493Z,22.48
2022-12-11T02:17:04.465Z,23.55
2022-12-11T02:19:48.633Z,26.13
2022-12-11T02:22:41.271Z,23.38
2022-12-11T02:25:21.807Z,28.35
2022-12-11T02:27:56.555Z,26.35
2022-12-11T02:30:23.969Z,21.60
2022-12-11T02:32:56.340Z,25.48
2022-12-11T02:35:23.565Z,23.73
2022-12-11T02:37:56.268Z,26.38
2022-12-11T02:40:26.767Z,29.55
2022-12-11T02:42:55.968Z,26.73
2022-12-11T02:45:24.475Z,28.42
2022-12-11T02:47:52.500Z,26.95
2022-12-11T02:50:21.602Z,30.17
2022-12-11T02:52:50.883Z,29.65
2022-12-11T02:55:18.497Z,26.58
2022-12-11T02:57:49.311Z,29.20
2022-12-11T03:00:16.855Z,26.48
2022-12-11T03:02:44.413Z,25.35
2022-12-11T03:05:13.376Z,26.88
2022-12-11T03:07:42.473Z,27.73
2022-12-11T03:10:14.423Z,25.80
2022-12-11T03:12:43.511Z,25.23
2022-12-11T03:15:17.681Z,27.50
2022-12-11T03:17:47.859Z,25.27
2022-12-11T03:20:14.949Z,28.45
2022-12-11T03:22:54.946Z,28.95
2022-12-11T03:25:44.298Z,26.38
2022-12-11T03:28:19.441Z,27.02
2022-12-11T03:30:49.727Z,27.27
2022-12-11T03:33:24.336Z,28.58
2022-12-11T03:35:56.063Z,26.95
2022-12-11T03:38:37.783Z,27.65
2022-12-11T03:41:06.605Z,24.02
2022-12-11T03:43:34.194Z,27.77
2022-12-11T03:46:01.676Z,27.80
2022-12-11T03:48:33.258Z,30.55
2022-12-11T03:51:02.455Z,26.20
2022-12-11T03:53:30.029Z,26.45
2022-12-11T03:55:58.276Z,28.05
2022-12-11T03:58:25.433Z,25.95
2022-12-11T04:00:52.521Z,23.63
2022-12-11T04:03:19.699Z,23.95
2022-12-11T04:05:48.877Z,25.58
2022-12-11T04:08:17.606Z,27.02
2022-12-11T04:10:44.784Z,28.25
2022-12-11T04:13:12.377Z,24.15
2022-12-11T04:15:40.199Z,27.17
2022-12-11T04:18:26.553Z,29.52
2022-12-11T04:23:58.659Z,24.80
2022-12-11T04:26:26.188Z,29.95
2022-12-11T04:28:53.390Z,26.85
2022-12-11T04:31:21.971Z,26.15
2022-12-11T04:33:49.204Z,25.58
2022-12-11T04:36:16.673Z,25.58
2022-12-11T04:38:43.787Z,25.60
2022-12-11T04:41:13.677Z,33.08
2022-12-11T04:43:41.070Z,31.30
2022-12-11T04:46:10.943Z,28.67
2022-12-11T04:48:38.791Z,26.33
2022-12-11T04:51:06.305Z,26.17
2022-12-11T04:53:33.554Z,28.80
2022-12-11T04:56:01.013Z,24.52
2022-12-11T04:58:28.205Z,25.08
2022-12-11T05:00:55.304Z,25.60
2022-12-11T05:03:22.543Z,25.80
2022-12-11T05:05:51.691Z,25.77
2022-12-11T05:08:19.844Z,27.70
2022-12-11T05:11:00.907Z,29.60
2022-12-11T05:13:29.058Z,31.20
2022-12-11T05:15:56.652Z,24.92
2022-12-11T05:18:24.126Z,27.20
2022-12-11T05:20:58.523Z,31.50
2022-12-11T05:23:25.960Z,24.23
2022-12-11T05:25:57.704Z,25.85
2022-12-11T05:28:27.488Z,28.52
2022-12-11T05:31:21.511Z,25.13
2022-12-11T05:33:50.170Z,27.42
2022-12-11T05:36:31.501Z,26.80
2022-12-11T05:38:59.685Z,29.08
2022-12-11T05:41:28.295Z,28.08
2022-12-11T05:43:55.355Z,26.42
2022-12-11T05:46:24.823Z,23.40
2022-12-11T05:48:55.086Z,28.15
2022-12-11T05:51:22.508Z,26.73
2022-12-11T05:53:51.301Z,26.42
2022-12-11T05:56:20.859Z,30.23
2022-12-11T05:58:48.764Z,25.20
2022-12-11T06:01:18.576Z,25.90
2022-12-11T06:03:45.737Z,26.75
2022-12-11T06:06:12.939Z,24.23
2022-12-11T06:08:40.031Z,25.88
2022-12-11T06:11:07.678Z,22.52
2022-12-11T06:13:35.393Z,25.63
2022-12-11T06:16:04.148Z,24.27
2022-12-11T06:18:31.980Z,20.23
2022-12-11T06:20:59.267Z,23.50
2022-12-11T06:23:26.354Z,22.52
2022-12-11T06:25:53.444Z,18.75
2022-12-11T06:28:20.549Z,22.98
2022-12-11T06:30:47.783Z,22.45
2022-12-11T06:33:14.945Z,21.17
2022-12-11T06:35:42.660Z,23.13
2022-12-11T06:55:48.806Z,23.40
2022-12-11T06:58:16.593Z,22.73
2022-12-11T07:00:43.838Z,19.85
2022-12-11T07:03:11.475Z,19.85
2022-12-11T07:05:38.518Z,20.13
2022-12-11T07:08:07.148Z,20.95
2022-12-11T07:10:34.246Z,18.25
2022-12-11T07:13:01.344Z,19.65
2022-12-11T07:15:28.441Z,19.60
2022-12-11T07:17:55.506Z,21.85
2022-12-11T07:20:22.684Z,19.20
2022-12-11T07:22:49.890Z,19.63
2022-12-11T07:25:17.194Z,20.40
2022-12-11T07:27:44.358Z,19.95
2022-12-11T07:30:11.964Z,18.50
2022-12-11T07:32:39.215Z,21.98
2022-12-11T07:35:06.750Z,18.35
2022-12-11T07:37:33.909Z,19.40
2022-12-11T07:40:01.043Z,25.45
2022-12-11T07:42:28.650Z,24.67
2022-12-11T07:44:55.811Z,18.60
2022-12-11T07:47:23.007Z,18.23
2022-12-11T07:49:50.141Z,17.33
2022-12-11T07:52:17.214Z,18.80
2022-12-11T07:54:44.389Z,18.55
2022-12-11T07:57:14.172Z,18.30
2022-12-11T07:59:41.775Z,19.70
2022-12-11T08:02:11.951Z,17.92
2022-12-11T08:04:39.128Z,20.73
2022-12-11T08:07:06.303Z,21.92
2022-12-11T08:09:33.475Z,17.75
2022-12-11T08:12:00.626Z,16.50
2022-12-11T09:56:36.586Z,17.63
2022-12-11T09:59:32.359Z,20.15
2022-12-11T10:02:19.029Z,20.60
2022-12-11T10:04:58.946Z,19.20
2022-12-11T10:07:48.894Z,18.63
2022-12-11T10:10:37.963Z,19.45
2022-12-11T10:13:30.267Z,20.23
2022-12-11T10:16:20.185Z,17.23
2022-12-11T10:18:48.830Z,18.42
2022-12-11T10:21:18.151Z,19.35
2022-12-11T10:23:56.290Z,17.70
2022-12-11T10:26:23.547Z,15.65
2022-12-11T10:28:50.710Z,18.80
2022-12-11T10:31:20.190Z,18.88
2022-12-11T10:33:56.789Z,20.08
2022-12-11T10:36:28.726Z,17.90
2022-12-11T10:38:55.975Z,16.83
2022-12-11T10:41:28.368Z,18.33
2022-12-11T10:43:55.450Z,18.15
2022-12-11T10:46:22.491Z,18.70
2022-12-11T10:48:53.490Z,18.27
2022-12-11T10:51:32.481Z,18.13
2022-12-11T10:54:07.527Z,17.52
2022-12-11T10:56:35.999Z,20.15
2022-12-11T10:59:03.965Z,18.73
2022-12-11T11:01:32.030Z,19.17
2022-12-11T11:04:19.330Z,19.95
2022-12-11T11:06:46.498Z,19.08
2022-12-11T11:09:35.786Z,17.73
2022-12-11T11:12:07.854Z,20.10
2022-12-11T11:14:35.226Z,21.77
2022-12-11T11:17:02.316Z,17.80
2022-12-11T11:19:36.367Z,19.80
2022-12-11T11:22:14.589Z,16.08
2022-12-11T12:40:24.651Z,17.85
2022-12-11T14:26:39.930Z,22.00
2022-12-11T14:46:42.872Z,24.05
2022-12-11T14:49:21.045Z,20.80
2022-12-11T14:51:48.303Z,20.90
2022-12-11T15:46:33.689Z,22.38
2022-12-11T15:57:33.215Z,20.40
2022-12-11T16:08:43.141Z,20.73
2022-12-11T16:15:30.117Z,20.45
2022-12-11T16:35:56.080Z,24.42
2022-12-11T16:38:23.242Z,19.00
2022-12-11T16:58:07.208Z,22.25
2022-12-11T17:31:53.323Z,22.88
2022-12-11T20:17:48.440Z,26.80
2022-12-11T20:20:15.539Z,26.92
2022-12-11T20:44:10.445Z,26.42
2022-12-11T21:12:29.821Z,28.35
2022-12-11T21:19:23.646Z,30.27
2022-12-11T22:22:05.526Z,36.50
